createdAt,value
2019-02-06T00:01:25.460Z,27.40
2019-02-06T00:03:55.043Z,27.07
2019-02-06T00:06:24.598Z,30.37
2019-02-06T00:08:54.652Z,28.00
2019-02-06T00:11:24.216Z,31.83
2019-02-06T00:13:53.927Z,30.30
2019-02-06T00:16:23.484Z,31.80
2019-02-06T00:18:54.026Z,29.90
2019-02-06T00:21:23.893Z,29.47
2019-02-06T00:23:53.408Z,28.90
2019-02-06T00:26:22.979Z,23.40
2019-02-06T00:28:52.680Z,26.80
2019-02-06T00:31:22.184Z,26.10
2019-02-06T00:33:51.710Z,23.30
2019-02-06T00:36:21.293Z,25.73
2019-02-06T00:38:51.201Z,25.60
2019-02-06T00:41:21.736Z,19.13
2019-02-06T00:43:51.267Z,23.77
2019-02-06T00:46:20.795Z,21.30
2019-02-06T00:48:50.316Z,20.43
2019-02-06T00:51:19.898Z,19.63
2019-02-06T00:53:49.732Z,20.13
2019-02-06T00:56:19.298Z,21.93
2019-02-06T00:58:48.797Z,20.90
2019-02-06T01:01:18.369Z,25.00
2019-02-06T01:03:47.907Z,24.53
2019-02-06T01:06:17.524Z,21.90
2019-02-06T01:08:47.332Z,26.90
2019-02-06T01:11:17.810Z,22.93
2019-02-06T01:13:47.441Z,23.90
2019-02-06T01:16:16.938Z,28.03
2019-02-06T01:18:46.525Z,35.47
2019-02-06T01:21:16.242Z,38.23
2019-02-06T01:23:46.097Z,30.60
2019-02-06T01:26:15.648Z,28.97
2019-02-06T01:28:45.362Z,29.60
2019-02-06T01:31:15.430Z,29.10
2019-02-06T01:33:44.913Z,27.93
2019-02-06T01:36:14.457Z,28.73
2019-02-06T01:38:44.349Z,34.30
2019-02-06T01:41:13.997Z,33.17
2019-02-06T01:43:43.702Z,30.37
2019-02-06T01:46:13.207Z,32.33
2019-02-06T01:48:42.742Z,33.27
2019-02-06T01:51:12.708Z,35.50
2019-02-06T01:53:42.598Z,33.57
2019-02-06T01:56:12.113Z,36.03
2019-02-06T01:58:41.700Z,34.73
2019-02-06T02:01:11.205Z,35.43
2019-02-06T02:03:40.702Z,35.53
2019-02-06T02:06:10.241Z,30.50
2019-02-06T02:08:42.378Z,35.80
2019-02-06T02:11:12.136Z,32.70
2019-02-06T02:13:41.695Z,33.37
2019-02-06T02:16:11.276Z,31.57
2019-02-06T02:18:40.861Z,34.10
2019-02-06T02:21:10.442Z,35.87
2019-02-06T02:23:41.189Z,41.90
2019-02-06T02:26:10.733Z,32.67
2019-02-06T02:28:40.433Z,37.67
2019-02-06T02:31:10.000Z,42.10
2019-02-06T02:33:39.497Z,34.77
2019-02-06T02:36:15.664Z,33.70
2019-02-06T02:38:40.497Z,34.80
2019-02-06T02:41:10.085Z,32.73
2019-02-06T02:43:39.682Z,36.43
2019-02-06T02:46:09.366Z,35.63
2019-02-06T02:48:38.881Z,36.73
2019-02-06T02:51:08.383Z,39.00
2019-02-06T02:53:37.967Z,34.23
2019-02-06T02:56:07.501Z,33.20
2019-02-06T02:58:37.086Z,37.57
2019-02-06T03:01:26.024Z,35.57
2019-02-06T03:03:57.467Z,37.13
2019-02-06T03:06:28.516Z,37.70
2019-02-06T03:08:58.260Z,39.40
2019-02-06T03:11:27.824Z,35.47
2019-02-06T03:13:57.437Z,34.40
2019-02-06T03:16:26.968Z,41.13
2019-02-06T03:18:56.458Z,41.17
2019-02-06T03:21:25.951Z,35.57
2019-02-06T03:23:55.614Z,27.70
2019-02-06T03:26:25.108Z,29.03
2019-02-06T03:28:54.597Z,27.00
2019-02-06T03:31:24.135Z,25.80
2019-02-06T03:33:53.640Z,25.70
2019-02-06T03:36:24.009Z,29.10
2019-02-06T03:38:53.542Z,25.97
2019-02-06T03:41:23.079Z,29.80
2019-02-06T03:43:53.504Z,28.23
2019-02-06T03:46:23.001Z,30.63
2019-02-06T03:48:52.512Z,27.73
2019-02-06T03:51:22.008Z,29.60
2019-02-06T03:53:51.520Z,22.73
2019-02-06T03:56:21.024Z,27.60
2019-02-06T03:58:50.714Z,32.23
2019-02-06T04:01:20.207Z,26.77
2019-02-06T04:03:49.734Z,27.27
2019-02-06T04:06:19.299Z,30.13
2019-02-06T04:08:48.824Z,30.70
2019-02-06T04:11:19.292Z,26.47
2019-02-06T04:13:48.860Z,30.53
2019-02-06T04:16:18.348Z,28.90
2019-02-06T04:18:47.868Z,30.90
2019-02-06T04:21:17.397Z,31.73
2019-02-06T04:23:46.929Z,34.90
2019-02-06T04:26:16.683Z,29.97
2019-02-06T04:28:46.172Z,32.40
2019-02-06T04:31:15.875Z,30.90
2019-02-06T04:33:45.803Z,29.80
2019-02-06T04:36:15.300Z,28.90
2019-02-06T04:38:45.986Z,29.83
2019-02-06T04:41:15.517Z,29.20
2019-02-06T04:43:45.011Z,29.10
2019-02-06T04:46:14.901Z,27.90
2019-02-06T04:48:44.434Z,28.87
2019-02-06T04:51:13.933Z,26.93
2019-02-06T04:53:43.491Z,28.17
2019-02-06T04:56:13.078Z,33.83
2019-02-06T04:58:42.648Z,27.50
2019-02-06T05:01:12.253Z,25.37
2019-02-06T05:03:41.757Z,26.87
2019-02-06T05:06:11.273Z,28.10
2019-02-06T05:08:40.808Z,25.63
2019-02-06T05:11:10.294Z,23.00
2019-02-06T05:13:39.831Z,22.37
2019-02-06T05:16:09.326Z,24.30
2019-02-06T05:18:38.817Z,27.40
2019-02-06T05:21:08.370Z,27.30
2019-02-06T05:23:37.872Z,28.30
2019-02-06T05:26:07.386Z,26.20
2019-02-06T05:28:36.994Z,27.97
2019-02-06T05:31:06.508Z,24.93
2019-02-06T05:33:36.018Z,30.70
2019-02-06T05:36:05.714Z,30.57
2019-02-06T05:38:36.196Z,29.20
2019-02-06T05:41:05.816Z,29.47
2019-02-06T05:43:35.690Z,31.43
2019-02-06T05:46:05.289Z,29.50
2019-02-06T05:48:35.065Z,25.57
2019-02-06T05:51:04.596Z,30.63
2019-02-06T05:53:34.104Z,27.10
2019-02-06T05:56:03.716Z,26.33
2019-02-06T05:58:33.321Z,27.80
2019-02-06T06:01:02.852Z,29.40
2019-02-06T06:03:32.707Z,28.50
2019-02-06T06:06:02.262Z,27.07
2019-02-06T06:08:31.758Z,29.07
2019-02-06T06:11:01.368Z,26.00
2019-02-06T06:13:30.867Z,28.33
2019-02-06T06:16:00.394Z,28.23
2019-02-06T06:18:30.266Z,24.70
2019-02-06T06:20:59.772Z,24.53
2019-02-06T06:23:29.305Z,24.13
2019-02-06T06:25:58.874Z,28.33
2019-02-06T06:28:30.304Z,29.33
2019-02-06T06:30:59.882Z,31.07
2019-02-06T06:33:30.474Z,29.23
2019-02-06T06:36:00.121Z,22.40
2019-02-06T06:38:29.624Z,24.37
2019-02-06T06:40:59.188Z,22.70
2019-02-06T06:43:29.698Z,26.93
2019-02-06T06:45:59.202Z,24.57
2019-02-06T06:48:29.193Z,26.10
2019-02-06T06:50:59.680Z,30.33
2019-02-06T06:53:29.361Z,27.57
2019-02-06T06:55:58.861Z,31.10
2019-02-06T06:58:28.472Z,27.27
2019-02-06T07:00:57.991Z,27.93
2019-02-06T07:03:27.833Z,26.47
2019-02-06T07:05:57.392Z,25.43
2019-02-06T07:08:27.819Z,24.60
2019-02-06T07:10:57.376Z,27.60
2019-02-06T07:13:26.889Z,29.00
2019-02-06T07:15:56.743Z,24.57
2019-02-06T07:18:26.626Z,25.00
2019-02-06T07:20:56.121Z,26.40
2019-02-06T07:23:25.920Z,25.83
2019-02-06T07:25:55.425Z,28.20
2019-02-06T07:28:24.907Z,26.50
2019-02-06T07:30:54.527Z,31.93
2019-02-06T07:33:24.409Z,23.97
2019-02-06T07:35:54.013Z,22.07
2019-02-06T07:38:24.533Z,27.90
2019-02-06T07:40:54.268Z,27.43
2019-02-06T07:43:23.768Z,28.73
2019-02-06T07:45:53.326Z,32.40
2019-02-06T07:48:23.293Z,29.07
2019-02-06T07:50:52.793Z,25.23
2019-02-06T07:53:22.377Z,28.13
2019-02-06T07:55:51.936Z,27.70
2019-02-06T07:58:21.433Z,26.73
2019-02-06T08:00:51.020Z,25.30
2019-02-06T08:03:20.913Z,27.30
2019-02-06T08:05:50.445Z,25.70
2019-02-06T08:08:20.009Z,26.17
2019-02-06T08:10:49.516Z,29.67
2019-02-06T08:13:19.035Z,26.73
2019-02-06T08:15:48.567Z,33.27
2019-02-06T08:18:18.558Z,27.87
2019-02-06T08:20:48.620Z,30.43
2019-02-06T08:23:18.885Z,29.63
2019-02-06T08:25:48.446Z,22.10
2019-02-06T08:28:17.955Z,25.50
2019-02-06T08:30:47.564Z,22.97
2019-02-06T08:33:17.292Z,23.80
2019-02-06T08:35:46.869Z,27.13
2019-02-06T08:38:16.418Z,18.80
2019-02-06T08:40:46.018Z,23.97
2019-02-06T08:43:15.534Z,25.97
2019-02-06T08:45:45.126Z,24.53
2019-02-06T08:48:14.644Z,22.60
2019-02-06T08:50:44.149Z,21.93
2019-02-06T08:53:13.961Z,16.70
2019-02-06T08:55:44.437Z,21.60
2019-02-06T08:58:13.948Z,24.23
2019-02-06T09:00:43.699Z,21.93
2019-02-06T09:03:13.442Z,22.87
2019-02-06T09:05:43.064Z,23.93
2019-02-06T09:08:12.552Z,25.77
2019-02-06T09:10:42.141Z,26.80
2019-02-06T09:13:11.811Z,23.17
2019-02-06T09:15:42.400Z,27.67
2019-02-06T09:18:11.909Z,23.80
2019-02-06T09:20:41.704Z,23.67
2019-02-06T09:23:11.302Z,24.27
2019-02-06T09:25:40.840Z,20.10
2019-02-06T09:28:10.530Z,20.40
2019-02-06T09:30:40.153Z,21.60
2019-02-06T09:33:09.659Z,20.90
2019-02-06T09:35:39.212Z,22.40
2019-02-06T09:38:08.750Z,21.80
2019-02-06T09:40:38.327Z,20.87
2019-02-06T09:43:07.867Z,22.70
2019-02-06T09:45:37.475Z,21.20
2019-02-06T09:48:07.193Z,21.90
2019-02-06T09:50:37.411Z,25.33
2019-02-06T09:53:07.048Z,21.33
2019-02-06T09:55:36.544Z,23.30
2019-02-06T09:58:06.451Z,24.00
2019-02-06T10:00:37.218Z,22.37
2019-02-06T10:03:07.338Z,26.60
2019-02-06T10:05:37.108Z,24.47
2019-02-06T10:08:06.841Z,19.53
2019-02-06T10:10:36.387Z,25.33
2019-02-06T10:13:06.109Z,26.23
2019-02-06T10:15:37.549Z,23.10
2019-02-06T10:18:07.540Z,17.90
2019-02-06T10:20:40.317Z,23.70
2019-02-06T10:23:10.041Z,21.30
2019-02-06T10:25:39.766Z,19.10
2019-02-06T10:28:09.338Z,21.47
2019-02-06T10:30:47.007Z,22.33
2019-02-06T10:33:18.917Z,23.83
2019-02-06T10:35:47.922Z,23.53
2019-02-06T10:38:17.538Z,19.23
2019-02-06T10:40:47.476Z,18.80
2019-02-06T10:43:17.050Z,20.03
2019-02-06T10:45:46.709Z,16.57
2019-02-06T10:48:16.932Z,19.43
2019-02-06T10:50:48.257Z,22.93
2019-02-06T10:53:18.119Z,27.40
2019-02-06T10:55:47.840Z,17.67
2019-02-06T10:58:17.753Z,18.90
2019-02-06T11:00:55.043Z,22.23
2019-02-06T11:03:24.568Z,16.83
2019-02-06T11:05:54.156Z,19.00
2019-02-06T11:08:23.687Z,20.37
2019-02-06T11:10:53.251Z,20.60
2019-02-06T11:13:22.952Z,20.23
2019-02-06T11:15:53.037Z,22.57
2019-02-06T11:18:22.545Z,19.40
2019-02-06T11:20:52.151Z,18.47
2019-02-06T11:23:21.740Z,18.63
2019-02-06T11:25:51.246Z,20.03
2019-02-06T11:28:20.822Z,25.27
2019-02-06T11:30:50.351Z,20.60
2019-02-06T11:33:19.965Z,18.30
2019-02-06T11:35:49.519Z,22.30
2019-02-06T11:38:19.094Z,20.60
2019-02-06T11:40:48.811Z,19.83
2019-02-06T11:43:18.321Z,17.33
2019-02-06T11:45:48.457Z,18.87
2019-02-06T11:48:18.056Z,20.53
2019-02-06T11:50:47.548Z,19.27
2019-02-06T11:53:17.309Z,17.73
2019-02-06T11:55:46.943Z,20.13
2019-02-06T11:58:16.552Z,24.13
2019-02-06T12:00:48.531Z,19.37
2019-02-06T12:03:22.031Z,21.63
2019-02-06T12:05:50.216Z,23.07
2019-02-06T12:08:20.881Z,17.17
2019-02-06T12:10:51.673Z,20.33
2019-02-06T12:13:21.349Z,18.23
2019-02-06T12:15:50.899Z,19.23
2019-02-06T12:18:20.415Z,27.07
2019-02-06T12:20:50.004Z,22.20
2019-02-06T12:23:31.647Z,16.17
2019-02-06T12:25:51.396Z,15.67
2019-02-06T12:28:21.318Z,17.40
2019-02-06T12:30:50.816Z,25.53
2019-02-06T12:33:20.312Z,16.00
2019-02-06T12:35:50.127Z,21.90
2019-02-06T12:38:19.700Z,21.47
2019-02-06T12:40:49.630Z,16.93
2019-02-06T12:43:19.273Z,17.07
2019-02-06T12:45:48.777Z,17.07
2019-02-06T12:48:18.752Z,18.90
2019-02-06T12:50:48.320Z,19.87
2019-02-06T12:53:17.839Z,18.33
2019-02-06T12:55:47.462Z,18.60
2019-02-06T12:58:17.349Z,19.20
2019-02-06T13:00:46.844Z,19.23
2019-02-06T13:03:16.444Z,18.63
2019-02-06T13:05:46.043Z,23.03
2019-02-06T13:08:17.372Z,17.00
2019-02-06T13:10:46.787Z,16.80
2019-02-06T13:13:16.728Z,22.27
2019-02-06T13:15:47.353Z,18.47
2019-02-06T13:18:17.099Z,18.60
2019-02-06T13:20:46.601Z,20.57
2019-02-06T13:23:16.079Z,16.80
2019-02-06T13:25:45.612Z,19.57
2019-02-06T13:28:15.392Z,25.00
2019-02-06T13:30:45.087Z,21.70
2019-02-06T13:33:14.578Z,16.17
2019-02-06T13:35:44.107Z,19.13
2019-02-06T13:38:13.615Z,21.43
2019-02-06T13:40:45.771Z,19.30
2019-02-06T13:43:14.438Z,15.17
2019-02-06T13:45:46.482Z,18.93
2019-02-06T13:48:16.060Z,21.07
2019-02-06T13:50:46.104Z,20.67
2019-02-06T13:53:15.972Z,19.67
2019-02-06T13:55:45.509Z,19.70
2019-02-06T13:58:20.194Z,18.77
2019-02-06T14:00:46.759Z,22.90
2019-02-06T14:03:16.323Z,22.20
2019-02-06T14:05:46.942Z,22.47
2019-02-06T14:08:16.730Z,19.20
2019-02-06T14:10:58.570Z,17.07
2019-02-06T14:13:17.969Z,19.33
2019-02-06T14:15:48.921Z,17.90
2019-02-06T14:18:18.495Z,18.43
2019-02-06T14:20:49.515Z,17.40
2019-02-06T14:23:25.602Z,18.87
2019-02-06T14:26:14.428Z,19.77
2019-02-06T14:29:04.886Z,18.07
2019-02-06T14:31:53.858Z,22.33
2019-02-06T14:34:44.532Z,21.57
2019-02-06T14:37:36.510Z,22.87
2019-02-06T14:40:18.041Z,19.33
2019-02-06T14:43:11.841Z,21.93
2019-02-06T14:45:47.360Z,20.30
2019-02-06T14:48:34.911Z,17.13
2019-02-06T14:51:29.726Z,18.23
2019-02-06T14:54:05.046Z,18.57
2019-02-06T14:56:43.966Z,21.67
2019-02-06T14:59:31.437Z,18.33
2019-02-06T15:02:20.525Z,18.00
2019-02-06T15:04:55.705Z,27.97
2019-02-06T15:07:40.580Z,23.77
2019-02-06T15:10:25.016Z,42.20
2019-02-06T15:13:19.776Z,21.60
2019-02-06T15:16:08.836Z,21.57
2019-02-06T15:18:50.329Z,22.43
2019-02-06T15:21:32.046Z,24.63
2019-02-06T15:24:16.392Z,19.57
2019-02-06T15:27:03.774Z,18.60
2019-02-06T15:30:00.177Z,17.10
2019-02-06T15:32:38.910Z,24.37
2019-02-06T15:35:26.188Z,19.10
2019-02-06T15:38:07.890Z,22.30
2019-02-06T15:40:40.535Z,21.20
2019-02-06T15:43:34.198Z,23.73
2019-02-06T15:46:24.785Z,23.93
2019-02-06T15:49:04.065Z,19.37
2019-02-06T15:51:36.696Z,20.37
2019-02-06T15:54:21.141Z,19.17
2019-02-06T15:57:27.882Z,26.73
2019-02-06T16:00:03.022Z,20.53
2019-02-06T16:02:47.399Z,23.00
2019-02-06T16:05:30.555Z,16.90
2019-02-06T16:08:22.408Z,18.10
2019-02-06T16:10:57.807Z,19.30
2019-02-06T16:14:02.180Z,25.10
2019-02-06T16:16:38.871Z,24.57
2019-02-06T16:19:31.399Z,23.20
2019-02-06T16:22:26.228Z,18.77
2019-02-06T16:25:02.127Z,23.83
2019-02-06T16:27:49.430Z,19.63
2019-02-06T16:30:24.926Z,33.97
2019-02-06T16:33:06.317Z,28.93
2019-02-06T16:35:53.812Z,22.53
2019-02-06T16:38:44.188Z,23.00
2019-02-06T16:41:25.596Z,18.93
2019-02-06T16:44:10.092Z,18.47
2019-02-06T16:46:49.523Z,22.17
2019-02-06T16:49:27.901Z,18.50
2019-02-06T16:52:13.540Z,23.83
2019-02-06T16:55:02.601Z,24.20
2019-02-06T16:57:40.922Z,24.20
2019-02-06T17:00:39.736Z,21.03
2019-02-06T17:03:39.452Z,22.70
2019-02-06T17:06:12.173Z,18.03
2019-02-06T17:09:12.660Z,20.47
2019-02-06T17:11:45.511Z,18.87
2019-02-06T17:14:52.737Z,16.33
2019-02-06T17:17:37.214Z,17.40
2019-02-06T17:20:29.431Z,18.77
2019-02-06T17:23:24.021Z,22.80
2019-02-06T17:25:56.624Z,15.17
2019-02-06T17:28:29.239Z,19.20
2019-02-06T17:31:30.221Z,19.43
2019-02-06T17:34:17.709Z,18.30
2019-02-06T17:37:02.240Z,21.60
2019-02-06T17:39:49.466Z,22.20
2019-02-06T17:42:25.070Z,19.87
2019-02-06T17:44:58.638Z,16.83
2019-02-06T17:47:31.546Z,25.00
2019-02-06T17:50:23.508Z,22.13
2019-02-06T17:53:04.951Z,14.07
2019-02-06T17:55:34.484Z,16.70
2019-02-06T17:58:39.332Z,19.10
2019-02-06T18:01:17.396Z,17.97
2019-02-06T18:03:48.488Z,19.17
2019-02-06T18:06:18.122Z,19.03
2019-02-06T18:08:56.287Z,15.80
2019-02-06T18:11:18.840Z,17.20
2019-02-06T18:13:48.848Z,18.43
2019-02-06T18:16:21.508Z,22.67
2019-02-06T18:18:49.853Z,18.80
2019-02-06T18:21:19.350Z,18.10
2019-02-06T18:23:49.853Z,20.00
2019-02-06T18:26:19.671Z,18.50
2019-02-06T18:28:49.534Z,20.13
2019-02-06T18:31:19.189Z,18.30
2019-02-06T18:33:49.815Z,16.87
2019-02-06T18:36:19.481Z,16.20
2019-02-06T18:38:51.053Z,26.93
2019-02-06T18:41:20.752Z,21.37
2019-02-06T18:43:50.452Z,20.53
2019-02-06T18:46:21.129Z,17.23
2019-02-06T18:48:50.953Z,16.40
2019-02-06T18:51:20.513Z,16.17
2019-02-06T18:53:50.211Z,15.87
2019-02-06T18:56:19.805Z,16.70
2019-02-06T18:58:49.393Z,14.83
2019-02-06T19:01:18.983Z,19.57
2019-02-06T19:03:49.177Z,20.13
2019-02-06T19:06:19.142Z,14.73
2019-02-06T19:08:48.726Z,19.60
2019-02-06T19:11:18.319Z,18.00
2019-02-06T19:13:47.963Z,16.57
2019-02-06T19:16:17.521Z,16.13
2019-02-06T19:18:47.161Z,14.00
2019-02-06T19:21:17.096Z,15.63
2019-02-06T19:23:46.603Z,17.10
2019-02-06T19:26:16.104Z,12.73
2019-02-06T19:28:45.598Z,14.23
2019-02-06T19:31:15.269Z,12.93
2019-02-06T19:33:44.816Z,16.00
2019-02-06T19:36:14.336Z,19.83
2019-02-06T19:38:46.054Z,18.63
2019-02-06T19:41:15.552Z,18.20
2019-02-06T19:43:45.115Z,17.10
2019-02-06T19:46:15.693Z,17.70
2019-02-06T19:48:45.264Z,17.73
2019-02-06T19:51:14.800Z,16.47
2019-02-06T19:53:44.818Z,18.10
2019-02-06T19:56:14.321Z,17.07
2019-02-06T19:58:44.834Z,14.17
2019-02-06T20:01:14.486Z,21.03
2019-02-06T20:03:44.082Z,20.67
2019-02-06T20:06:15.550Z,20.27
2019-02-06T20:08:45.121Z,15.33
2019-02-06T20:11:14.989Z,20.20
2019-02-06T20:13:44.525Z,19.47
2019-02-06T20:16:14.102Z,16.60
2019-02-06T20:18:43.615Z,19.37
2019-02-06T20:21:13.236Z,20.27
2019-02-06T20:23:42.880Z,21.27
2019-02-06T20:26:12.387Z,15.90
2019-02-06T20:28:42.229Z,16.63
2019-02-06T20:31:11.818Z,20.70
2019-02-06T20:33:41.407Z,30.07
2019-02-06T20:36:11.289Z,24.10
2019-02-06T20:38:40.782Z,20.10
2019-02-06T20:41:10.541Z,23.53
2019-02-06T20:43:40.076Z,20.87
2019-02-06T20:46:09.591Z,21.03
2019-02-06T20:48:39.100Z,26.80
2019-02-06T20:51:08.595Z,22.90
2019-02-06T20:53:38.160Z,35.67
2019-02-06T20:56:07.858Z,24.83
2019-02-06T20:58:37.572Z,26.60
2019-02-06T21:01:07.524Z,32.97
2019-02-06T21:03:37.086Z,25.60
2019-02-06T21:06:06.593Z,33.13
2019-02-06T21:08:36.200Z,32.53
2019-02-06T21:11:05.789Z,32.03
2019-02-06T21:13:35.289Z,31.50
2019-02-06T21:16:05.385Z,34.53
2019-02-06T21:18:34.969Z,29.10
2019-02-06T21:21:04.497Z,34.63
2019-02-06T21:23:34.097Z,32.13
2019-02-06T21:26:03.699Z,30.47
2019-02-06T21:28:33.197Z,34.57
2019-02-06T21:31:02.964Z,36.80
2019-02-06T21:33:32.481Z,35.23
2019-02-06T21:36:01.997Z,34.77
2019-02-06T21:38:31.580Z,34.07
2019-02-06T21:41:01.065Z,31.57
2019-02-06T21:43:30.673Z,38.47
2019-02-06T21:46:00.598Z,28.93
2019-02-06T21:48:30.145Z,36.37
2019-02-06T21:50:59.632Z,40.73
2019-02-06T21:53:29.202Z,28.50
2019-02-06T21:55:58.789Z,28.37
2019-02-06T21:58:28.396Z,31.87
2019-02-06T22:00:58.338Z,29.20
2019-02-06T22:03:27.843Z,32.60
2019-02-06T22:05:58.340Z,30.67
2019-02-06T22:08:27.882Z,33.37
2019-02-06T22:10:57.454Z,31.33
2019-02-06T22:13:26.973Z,38.67
2019-02-06T22:15:56.597Z,28.27
2019-02-06T22:18:26.173Z,30.80
2019-02-06T22:20:55.685Z,29.80
2019-02-06T22:23:25.245Z,35.87
2019-02-06T22:25:54.845Z,31.30
2019-02-06T22:28:24.709Z,32.40
2019-02-06T22:30:54.314Z,29.60
2019-02-06T22:33:24.114Z,32.57
2019-02-06T22:35:53.619Z,30.93
2019-02-06T22:38:23.116Z,28.63
2019-02-06T22:40:52.881Z,33.07
2019-02-06T22:43:22.378Z,30.47
2019-02-06T22:45:51.951Z,32.03
2019-02-06T22:48:21.563Z,31.00
2019-02-06T22:50:51.149Z,28.20
2019-02-06T22:53:20.713Z,31.40
2019-02-06T22:55:50.265Z,30.40
2019-02-06T22:58:20.073Z,35.00
2019-02-06T23:00:59.471Z,30.90
2019-02-06T23:03:31.807Z,35.17
2019-02-06T23:06:01.307Z,34.50
2019-02-06T23:08:30.884Z,36.87
2019-02-06T23:11:00.897Z,33.90
2019-02-06T23:13:30.708Z,31.40
2019-02-06T23:16:00.297Z,38.83
2019-02-06T23:18:29.795Z,39.53
2019-02-06T23:20:59.328Z,40.23
2019-02-06T23:23:29.212Z,42.23
2019-02-06T23:25:58.743Z,39.23
2019-02-06T23:28:28.247Z,44.07
2019-02-06T23:30:57.737Z,46.77
2019-02-06T23:33:27.520Z,41.20
2019-02-06T23:35:57.026Z,41.20
2019-02-06T23:38:26.533Z,42.73
2019-02-06T23:40:56.055Z,40.93
2019-02-06T23:43:25.709Z,42.87
2019-02-06T23:45:55.225Z,38.40
2019-02-06T23:48:25.686Z,36.70
2019-02-06T23:50:55.248Z,44.17
2019-02-06T23:53:25.151Z,52.47
2019-02-06T23:55:54.712Z,42.00
2019-02-06T23:58:24.299Z,52.50
